sensor_id;sensor_type;location;lat;lon;timestamp;pressure;altitude;pressure_sealevel;temperature;humidity
56689;BME280;42565;53.342;-1.534;2022-08-11T00:01:45;99870.28;;;24.68;30.80
56689;BME280;42565;53.342;-1.534;2022-08-11T00:04:15;99867.21;;;25.52;30.67
56689;BME280;42565;53.342;-1.534;2022-08-11T00:06:44;99865.35;;;25.27;30.57
56689;BME280;42565;53.342;-1.534;2022-08-11T00:09:16;99862.45;;;25.85;30.56
56689;BME280;42565;53.342;-1.534;2022-08-11T00:11:47;99856.73;;;25.35;30.55
56689;BME280;42565;53.342;-1.534;2022-08-11T00:14:16;99856.17;;;25.61;30.58
56689;BME280;42565;53.342;-1.534;2022-08-11T00:16:53;99854.84;;;25.56;30.50
56689;BME280;42565;53.342;-1.534;2022-08-11T00:19:22;99857.32;;;25.34;31.02
56689;BME280;42565;53.342;-1.534;2022-08-11T00:21:50;99856.88;;;25.42;31.37
56689;BME280;42565;53.342;-1.534;2022-08-11T00:24:19;99856.15;;;25.11;31.24
56689;BME280;42565;53.342;-1.534;2022-08-11T00:26:47;99853.87;;;25.22;31.30
56689;BME280;42565;53.342;-1.534;2022-08-11T00:29:15;99854.35;;;25.60;30.92
56689;BME280;42565;53.342;-1.534;2022-08-11T00:31:46;99856.60;;;25.19;31.11
56689;BME280;42565;53.342;-1.534;2022-08-11T00:34:16;99856.80;;;25.39;31.23
56689;BME280;42565;53.342;-1.534;2022-08-11T00:37:30;99853.08;;;25.63;31.22
56689;BME280;42565;53.342;-1.534;2022-08-11T00:39:58;99851.10;;;25.26;31.36
56689;BME280;42565;53.342;-1.534;2022-08-11T00:42:39;99851.60;;;25.32;31.32
56689;BME280;42565;53.342;-1.534;2022-08-11T00:45:13;99849.35;;;25.07;31.36
56689;BME280;42565;53.342;-1.534;2022-08-11T00:48:00;99846.76;;;25.06;31.51
56689;BME280;42565;53.342;-1.534;2022-08-11T00:50:40;99844.10;;;25.30;31.35
56689;BME280;42565;53.342;-1.534;2022-08-11T00:53:25;99843.01;;;25.67;31.12
56689;BME280;42565;53.342;-1.534;2022-08-11T00:56:16;99844.28;;;25.71;31.07
56689;BME280;42565;53.342;-1.534;2022-08-11T01:00:02;99843.15;;;25.39;31.54
56689;BME280;42565;53.342;-1.534;2022-08-11T01:02:46;99842.28;;;25.47;31.80
56689;BME280;42565;53.342;-1.534;2022-08-11T01:05:30;99840.35;;;25.04;32.32
56689;BME280;42565;53.342;-1.534;2022-08-11T01:10:40;99839.37;;;25.45;32.66
56689;BME280;42565;53.342;-1.534;2022-08-11T01:13:17;99839.83;;;25.10;32.65
56689;BME280;42565;53.342;-1.534;2022-08-11T01:16:18;99841.36;;;24.98;32.56
56689;BME280;42565;53.342;-1.534;2022-08-11T01:19:04;99838.95;;;25.10;32.50
56689;BME280;42565;53.342;-1.534;2022-08-11T01:23:07;99839.42;;;24.97;32.30
56689;BME280;42565;53.342;-1.534;2022-08-11T01:26:28;99837.30;;;25.07;32.45
56689;BME280;42565;53.342;-1.534;2022-08-11T01:29:33;99835.43;;;25.54;31.94
56689;BME280;42565;53.342;-1.534;2022-08-11T01:32:36;99836.66;;;25.85;31.57
56689;BME280;42565;53.342;-1.534;2022-08-11T01:40:47;99833.91;;;26.11;31.84
56689;BME280;42565;53.342;-1.534;2022-08-11T01:43:50;99831.62;;;25.91;31.30
56689;BME280;42565;53.342;-1.534;2022-08-11T01:46:28;99830.72;;;25.79;31.50
56689;BME280;42565;53.342;-1.534;2022-08-11T01:49:05;99832.87;;;25.65;32.03
56689;BME280;42565;53.342;-1.534;2022-08-11T01:51:48;99835.57;;;24.97;32.25
56689;BME280;42565;53.342;-1.534;2022-08-11T01:54:25;99833.80;;;25.36;32.26
56689;BME280;42565;53.342;-1.534;2022-08-11T01:57:09;99832.95;;;24.94;32.52
56689;BME280;42565;53.342;-1.534;2022-08-11T01:59:42;99830.60;;;24.58;32.96
56689;BME280;42565;53.342;-1.534;2022-08-11T02:02:25;99832.19;;;24.73;33.23
56689;BME280;42565;53.342;-1.534;2022-08-11T02:05:00;99830.35;;;24.39;33.65
56689;BME280;42565;53.342;-1.534;2022-08-11T02:07:34;99826.36;;;24.58;33.54
56689;BME280;42565;53.342;-1.534;2022-08-11T02:10:15;99826.43;;;24.94;33.04
56689;BME280;42565;53.342;-1.534;2022-08-11T02:12:52;99826.50;;;25.04;33.06
56689;BME280;42565;53.342;-1.534;2022-08-11T02:15:27;99825.26;;;25.18;32.99
56689;BME280;42565;53.342;-1.534;2022-08-11T02:18:04;99824.08;;;25.05;33.07
56689;BME280;42565;53.342;-1.534;2022-08-11T02:20:40;99826.49;;;25.19;33.07
56689;BME280;42565;53.342;-1.534;2022-08-11T02:23:21;99826.17;;;24.87;33.30
56689;BME280;42565;53.342;-1.534;2022-08-11T02:25:56;99829.50;;;25.00;32.96
56689;BME280;42565;53.342;-1.534;2022-08-11T02:28:31;99825.09;;;25.34;32.83
56689;BME280;42565;53.342;-1.534;2022-08-11T02:31:07;99821.12;;;25.26;32.62
56689;BME280;42565;53.342;-1.534;2022-08-11T02:33:41;99819.90;;;24.97;32.60
56689;BME280;42565;53.342;-1.534;2022-08-11T02:37:16;99819.00;;;26.12;32.09
56689;BME280;42565;53.342;-1.534;2022-08-11T02:40:03;99815.18;;;25.47;32.28
56689;BME280;42565;53.342;-1.534;2022-08-11T02:42:41;99815.18;;;25.82;32.36
56689;BME280;42565;53.342;-1.534;2022-08-11T02:45:31;99811.12;;;25.52;32.24
56689;BME280;42565;53.342;-1.534;2022-08-11T02:48:05;99807.78;;;25.38;32.53
56689;BME280;42565;53.342;-1.534;2022-08-11T02:50:39;99808.72;;;25.55;32.20
56689;BME280;42565;53.342;-1.534;2022-08-11T02:53:13;99804.16;;;25.23;32.97
56689;BME280;42565;53.342;-1.534;2022-08-11T02:55:53;99805.10;;;24.83;33.20
56689;BME280;42565;53.342;-1.534;2022-08-11T02:58:33;99808.94;;;25.42;33.22
56689;BME280;42565;53.342;-1.534;2022-08-11T03:01:10;99811.25;;;25.24;33.40
56689;BME280;42565;53.342;-1.534;2022-08-11T03:03:49;99812.16;;;24.76;33.52
56689;BME280;42565;53.342;-1.534;2022-08-11T03:06:27;99809.53;;;24.84;33.54
56689;BME280;42565;53.342;-1.534;2022-08-11T03:09:03;99809.79;;;25.12;33.54
56689;BME280;42565;53.342;-1.534;2022-08-11T03:11:46;99814.05;;;24.86;33.46
56689;BME280;42565;53.342;-1.534;2022-08-11T03:14:21;99814.32;;;25.02;33.74
56689;BME280;42565;53.342;-1.534;2022-08-11T03:16:55;99813.80;;;25.00;33.74
56689;BME280;42565;53.342;-1.534;2022-08-11T03:19:29;99814.05;;;24.77;33.54
56689;BME280;42565;53.342;-1.534;2022-08-11T03:22:08;99814.22;;;25.00;33.65
56689;BME280;42565;53.342;-1.534;2022-08-11T03:24:48;99815.59;;;24.80;33.40
56689;BME280;42565;53.342;-1.534;2022-08-11T03:27:29;99815.89;;;25.03;33.44
56689;BME280;42565;53.342;-1.534;2022-08-11T03:30:05;99816.10;;;24.91;33.53
56689;BME280;42565;53.342;-1.534;2022-08-11T03:32:40;99813.58;;;24.72;33.68
56689;BME280;42565;53.342;-1.534;2022-08-11T03:35:09;99812.79;;;25.02;33.47
56689;BME280;42565;53.342;-1.534;2022-08-11T03:38:23;99809.83;;;25.12;33.99
56689;BME280;42565;53.342;-1.534;2022-08-11T03:41:12;99809.97;;;24.87;33.76
56689;BME280;42565;53.342;-1.534;2022-08-11T03:43:53;99810.73;;;24.64;33.87
56689;BME280;42565;53.342;-1.534;2022-08-11T03:46:35;99809.57;;;25.14;33.60
56689;BME280;42565;53.342;-1.534;2022-08-11T03:49:11;99805.28;;;24.90;33.76
56689;BME280;42565;53.342;-1.534;2022-08-11T03:51:51;99802.35;;;24.10;34.85
56689;BME280;42565;53.342;-1.534;2022-08-11T03:54:28;99802.77;;;24.19;34.79
56689;BME280;42565;53.342;-1.534;2022-08-11T03:58:13;99801.01;;;24.50;34.14
56689;BME280;42565;53.342;-1.534;2022-08-11T04:01:15;99804.67;;;24.35;34.38
56689;BME280;42565;53.342;-1.534;2022-08-11T04:04:15;99802.71;;;24.34;34.36
56689;BME280;42565;53.342;-1.534;2022-08-11T04:07:06;99804.32;;;24.25;34.54
56689;BME280;42565;53.342;-1.534;2022-08-11T04:10:03;99805.15;;;23.79;34.83
56689;BME280;42565;53.342;-1.534;2022-08-11T04:13:27;99807.05;;;24.15;34.56
56689;BME280;42565;53.342;-1.534;2022-08-11T04:16:14;99808.86;;;24.37;35.01
56689;BME280;42565;53.342;-1.534;2022-08-11T04:21:05;99805.77;;;24.79;34.97
56689;BME280;42565;53.342;-1.534;2022-08-11T04:23:55;99808.17;;;23.61;35.30
56689;BME280;42565;53.342;-1.534;2022-08-11T04:26:46;99807.13;;;24.37;34.97
56689;BME280;42565;53.342;-1.534;2022-08-11T04:29:34;99808.55;;;24.19;35.22
56689;BME280;42565;53.342;-1.534;2022-08-11T04:32:25;99806.60;;;23.96;35.44
56689;BME280;42565;53.342;-1.534;2022-08-11T04:35:18;99805.10;;;23.95;35.43
56689;BME280;42565;53.342;-1.534;2022-08-11T04:38:21;99805.19;;;23.63;35.45
56689;BME280;42565;53.342;-1.534;2022-08-11T04:41:19;99802.81;;;23.84;35.40
56689;BME280;42565;53.342;-1.534;2022-08-11T04:45:19;99805.48;;;23.95;35.34
56689;BME280;42565;53.342;-1.534;2022-08-11T04:48:07;99803.27;;;23.88;35.48
56689;BME280;42565;53.342;-1.534;2022-08-11T04:53:20;99800.77;;;24.08;36.36
56689;BME280;42565;53.342;-1.534;2022-08-11T04:56:02;99800.75;;;23.54;35.76
56689;BME280;42565;53.342;-1.534;2022-08-11T04:58:46;99798.49;;;24.04;35.40
56689;BME280;42565;53.342;-1.534;2022-08-11T05:01:26;99801.33;;;24.06;35.27
56689;BME280;42565;53.342;-1.534;2022-08-11T05:04:15;99804.06;;;23.99;35.57
56689;BME280;42565;53.342;-1.534;2022-08-11T05:07:04;99800.97;;;23.67;35.63
56689;BME280;42565;53.342;-1.534;2022-08-11T05:10:07;99801.10;;;23.16;36.03
56689;BME280;42565;53.342;-1.534;2022-08-11T05:12:41;99803.87;;;23.50;35.61
56689;BME280;42565;53.342;-1.534;2022-08-11T05:15:12;99804.92;;;23.90;35.87
56689;BME280;42565;53.342;-1.534;2022-08-11T05:17:44;99807.76;;;23.56;36.18
56689;BME280;42565;53.342;-1.534;2022-08-11T05:20:12;99812.14;;;23.85;35.99
56689;BME280;42565;53.342;-1.534;2022-08-11T05:22:46;99812.37;;;23.75;36.01
56689;BME280;42565;53.342;-1.534;2022-08-11T05:25:17;99813.74;;;23.75;36.07
56689;BME280;42565;53.342;-1.534;2022-08-11T05:27:52;99810.49;;;23.65;36.10
56689;BME280;42565;53.342;-1.534;2022-08-11T05:30:26;99809.25;;;23.70;36.49
56689;BME280;42565;53.342;-1.534;2022-08-11T05:32:57;99813.37;;;23.83;36.21
56689;BME280;42565;53.342;-1.534;2022-08-11T05:35:30;99817.58;;;23.89;36.17
56689;BME280;42565;53.342;-1.534;2022-08-11T05:38:39;99822.74;;;24.09;35.91
56689;BME280;42565;53.342;-1.534;2022-08-11T05:41:06;99822.07;;;23.88;36.32
56689;BME280;42565;53.342;-1.534;2022-08-11T05:43:41;99822.81;;;24.07;35.93
56689;BME280;42565;53.342;-1.534;2022-08-11T05:46:09;99819.53;;;24.42;35.67
56689;BME280;42565;53.342;-1.534;2022-08-11T05:48:39;99824.72;;;23.38;35.75
56689;BME280;42565;53.342;-1.534;2022-08-11T05:51:08;99826.29;;;23.93;36.22
56689;BME280;42565;53.342;-1.534;2022-08-11T05:53:44;99825.97;;;24.01;35.96
56689;BME280;42565;53.342;-1.534;2022-08-11T05:56:12;99822.48;;;24.30;35.60
56689;BME280;42565;53.342;-1.534;2022-08-11T05:58:41;99817.49;;;24.54;35.13
56689;BME280;42565;53.342;-1.534;2022-08-11T06:01:09;99817.28;;;24.88;35.54
56689;BME280;42565;53.342;-1.534;2022-08-11T06:03:39;99817.37;;;24.59;34.66
56689;BME280;42565;53.342;-1.534;2022-08-11T06:06:09;99819.67;;;24.92;34.74
56689;BME280;42565;53.342;-1.534;2022-08-11T06:08:37;99819.97;;;24.75;34.60
56689;BME280;42565;53.342;-1.534;2022-08-11T06:11:05;99823.86;;;24.66;35.30
56689;BME280;42565;53.342;-1.534;2022-08-11T06:13:33;99820.75;;;24.66;35.69
56689;BME280;42565;53.342;-1.534;2022-08-11T06:16:00;99821.56;;;24.39;36.25
56689;BME280;42565;53.342;-1.534;2022-08-11T06:18:29;99826.81;;;24.75;36.10
56689;BME280;42565;53.342;-1.534;2022-08-11T06:20:57;99826.42;;;24.00;36.63
56689;BME280;42565;53.342;-1.534;2022-08-11T06:23:30;99825.51;;;24.05;36.68
56689;BME280;42565;53.342;-1.534;2022-08-11T06:25:59;99825.17;;;24.40;37.07
56689;BME280;42565;53.342;-1.534;2022-08-11T06:28:30;99826.36;;;23.55;38.22
56689;BME280;42565;53.342;-1.534;2022-08-11T06:30:59;99826.85;;;23.06;39.55
56689;BME280;42565;53.342;-1.534;2022-08-11T06:33:32;99828.04;;;23.24;40.04
56689;BME280;42565;53.342;-1.534;2022-08-11T06:36:05;99826.13;;;23.25;39.65
56689;BME280;42565;53.342;-1.534;2022-08-11T06:38:48;99828.57;;;23.27;39.27
56689;BME280;42565;53.342;-1.534;2022-08-11T06:41:21;99827.28;;;23.66;39.25
56689;BME280;42565;53.342;-1.534;2022-08-11T06:43:59;99827.62;;;23.95;38.65
56689;BME280;42565;53.342;-1.534;2022-08-11T06:46:31;99828.09;;;24.32;37.59
56689;BME280;42565;53.342;-1.534;2022-08-11T06:49:00;99829.21;;;24.26;37.90
56689;BME280;42565;53.342;-1.534;2022-08-11T06:51:28;99832.23;;;24.25;38.00
56689;BME280;42565;53.342;-1.534;2022-08-11T06:53:57;99832.83;;;23.73;38.30
56689;BME280;42565;53.342;-1.534;2022-08-11T06:56:28;99831.50;;;23.40;39.31
56689;BME280;42565;53.342;-1.534;2022-08-11T06:58:56;99830.61;;;23.74;38.44
56689;BME280;42565;53.342;-1.534;2022-08-11T07:01:36;99832.99;;;23.18;39.64
56689;BME280;42565;53.342;-1.534;2022-08-11T07:04:08;99828.18;;;22.61;41.08
56689;BME280;42565;53.342;-1.534;2022-08-11T07:07:00;99834.36;;;22.78;40.43
56689;BME280;42565;53.342;-1.534;2022-08-11T07:09:51;99833.06;;;22.58;40.70
56689;BME280;42565;53.342;-1.534;2022-08-11T07:12:36;99832.01;;;22.95;40.09
56689;BME280;42565;53.342;-1.534;2022-08-11T07:15:08;99828.14;;;23.57;39.46
56689;BME280;42565;53.342;-1.534;2022-08-11T07:17:43;99829.22;;;22.80;39.74
56689;BME280;42565;53.342;-1.534;2022-08-11T07:20:12;99830.83;;;23.69;38.55
56689;BME280;42565;53.342;-1.534;2022-08-11T07:22:41;99827.31;;;24.09;37.58
56689;BME280;42565;53.342;-1.534;2022-08-11T07:25:12;99820.71;;;24.99;36.37
56689;BME280;42565;53.342;-1.534;2022-08-11T07:27:43;99823.24;;;25.11;35.32
56689;BME280;42565;53.342;-1.534;2022-08-11T07:30:12;99821.47;;;24.97;35.24
56689;BME280;42565;53.342;-1.534;2022-08-11T07:32:44;99823.66;;;25.23;34.57
56689;BME280;42565;53.342;-1.534;2022-08-11T07:35:17;99827.39;;;25.83;33.74
56689;BME280;42565;53.342;-1.534;2022-08-11T07:37:49;99825.91;;;25.90;33.54
56689;BME280;42565;53.342;-1.534;2022-08-11T07:40:20;99823.64;;;25.98;33.34
56689;BME280;42565;53.342;-1.534;2022-08-11T07:42:49;99821.65;;;25.92;33.05
56689;BME280;42565;53.342;-1.534;2022-08-11T07:45:17;99818.63;;;26.19;33.02
56689;BME280;42565;53.342;-1.534;2022-08-11T07:47:45;99819.36;;;26.81;32.67
56689;BME280;42565;53.342;-1.534;2022-08-11T07:50:13;99820.55;;;26.40;33.66
56689;BME280;42565;53.342;-1.534;2022-08-11T07:52:41;99821.90;;;25.22;34.32
56689;BME280;42565;53.342;-1.534;2022-08-11T07:55:13;99820.87;;;25.90;34.12
56689;BME280;42565;53.342;-1.534;2022-08-11T07:57:43;99822.40;;;25.28;33.61
56689;BME280;42565;53.342;-1.534;2022-08-11T08:00:12;99820.12;;;26.63;32.89
56689;BME280;42565;53.342;-1.534;2022-08-11T08:02:40;99818.83;;;26.00;33.21
56689;BME280;42565;53.342;-1.534;2022-08-11T08:05:08;99819.74;;;26.15;33.40
56689;BME280;42565;53.342;-1.534;2022-08-11T08:07:37;99817.09;;;26.24;34.15
